Time;durP1;ratioP1;P1;durP2;ratioP2;P2;SDS_P1;SDS_P2;PMS_P1;PMS_P2;Temp;Humidity;BMP_temperature;BMP_pressure;BME280_temperature;BME280_humidity;BME280_pressure;Samples;Min_cycle;Max_cycle;Signal;HPM_P1;HPM_P2
2021/10/14 00:00:21;;;;;;;;;;;12.50;99.90;;;;;;4976240;28;19925;-77
2021/10/14 00:02:46;;;;;;;;;;;12.50;99.90;;;;;;4969507;28;19914;-77
2021/10/14 00:05:12;;;;;;;;;;;12.50;99.90;;;;;;4973468;28;19914;-77
2021/10/14 00:07:37;;;;;;;;;;;12.50;99.90;;;;;;4991435;28;19960;-76
2021/10/14 00:10:04;;;;;;;;;;;12.50;99.90;;;;;;4993215;28;20339;-77
2021/10/14 00:12:30;;;;;;;;;;;12.50;99.90;;;;;;4992196;28;19913;-76
2021/10/14 00:14:55;;;;;;;;;;;12.50;99.90;;;;;;4993355;28;20017;-76
2021/10/14 00:17:21;;;;;;;;;;;12.50;99.90;;;;;;4994473;28;19920;-76
2021/10/14 00:19:46;;;;;;;;;;;12.50;99.90;;;;;;4995680;28;19914;-76
2021/10/14 00:22:12;;;;;;;;;;;12.50;99.90;;;;;;4997355;28;19953;-77
2021/10/14 00:24:37;;;;;;;;;;;12.50;99.90;;;;;;4995716;28;20442;-77
2021/10/14 00:27:03;;;;;;;;;;;12.60;99.90;;;;;;4997388;28;20185;-77
2021/10/14 00:29:28;;;;;;;;;;;12.60;99.90;;;;;;4995166;28;19913;-76
2021/10/14 00:31:54;;;;;;;;;;;12.60;99.90;;;;;;4995933;28;20326;-77
2021/10/14 00:34:19;;;;;;;;;;;12.60;99.90;;;;;;4997034;28;19917;-77
2021/10/14 00:36:45;;;;;;;;;;;12.60;99.90;;;;;;4995324;28;19941;-77
2021/10/14 00:39:10;;;;;;;;;;;12.60;99.90;;;;;;4997091;28;19952;-77
2021/10/14 00:41:36;;;;;;;;;;;12.60;99.90;;;;;;4996939;28;19921;-77
2021/10/14 00:44:01;;;;;;;;;;;12.50;99.90;;;;;;4995342;28;19929;-77
2021/10/14 00:46:27;;;;;;;;;;;12.60;99.90;;;;;;4996238;28;19956;-77
2021/10/14 00:48:52;;;;;;;;;;;12.60;99.90;;;;;;4995208;28;19914;-77
2021/10/14 00:51:18;;;;;;;;;;;12.60;99.90;;;;;;4996819;28;19914;-77
2021/10/14 00:53:45;;;;;;;;;;;12.60;99.90;;;;;;4996942;28;19910;-77
2021/10/14 00:56:11;;;;;;;;;;;12.60;99.90;;;;;;4996270;28;19917;-77
2021/10/14 00:58:36;;;;;;;;;;;12.60;99.90;;;;;;4996531;28;19914;-77
2021/10/14 01:01:02;;;;;;;;;;;12.60;99.90;;;;;;4996484;28;19913;-78
2021/10/14 01:03:28;;;;;;;;;;;12.70;99.90;;;;;;4995199;28;20370;-78
2021/10/14 01:05:56;;;;;;;;;;;12.70;99.90;;;;;;5001255;28;20197;-77
2021/10/14 01:08:21;;;;;;;;;;;12.70;99.90;;;;;;4998903;28;20275;-78
2021/10/14 01:10:47;;;;;;;;;;;12.70;99.90;;;;;;5015853;28;20293;-77
2021/10/14 01:13:12;;;;;;;;;;;12.70;99.90;;;;;;5015582;28;19944;-77
2021/10/14 01:15:38;;;;;;;;;;;12.80;99.90;;;;;;5015701;28;20032;-76
2021/10/14 01:18:03;;;;;;;;;;;12.80;99.90;;;;;;4998698;28;20012;-76
2021/10/14 01:20:29;;;;;;;;;;;12.80;99.90;;;;;;5016080;28;19914;-77
2021/10/14 01:22:55;;;;;;;;;;;12.70;99.90;;;;;;5016038;28;19996;-77
2021/10/14 01:25:21;;;;;;;;;;;12.80;99.90;;;;;;5015816;28;19917;-77
2021/10/14 01:27:48;;;;;;;;;;;12.70;99.90;;;;;;4997590;28;19913;-78
2021/10/14 01:30:14;;;;;;;;;;;12.80;99.90;;;;;;5014716;28;20281;-78
2021/10/14 01:32:40;;;;;;;;;;;12.80;99.90;;;;;;4997701;28;19913;-77
2021/10/14 01:35:06;;;;;;;;;;;12.80;99.90;;;;;;5015839;28;19924;-77
2021/10/14 01:37:32;;;;;;;;;;;12.80;99.90;;;;;;4997843;28;19921;-78
2021/10/14 01:39:58;;;;;;;;;;;12.80;99.90;;;;;;4998014;28;19914;-77
2021/10/14 01:42:24;;;;;;;;;;;12.90;99.90;;;;;;5014886;28;20281;-78
2021/10/14 01:44:49;;;;;;;;;;;12.90;99.90;;;;;;5015317;28;19914;-78
2021/10/14 01:47:15;;;;;;;;;;;12.90;99.90;;;;;;4997663;28;20333;-77
2021/10/14 01:49:40;;;;;;;;;;;12.90;99.90;;;;;;5015304;28;20464;-78
2021/10/14 01:52:06;;;;;;;;;;;12.90;99.90;;;;;;5014930;28;20373;-77
2021/10/14 01:54:31;;;;;;;;;;;13.00;99.90;;;;;;5015057;28;19975;-78
2021/10/14 01:56:57;;;;;;;;;;;13.00;99.90;;;;;;4997636;28;19945;-77
2021/10/14 01:59:22;;;;;;;;;;;13.00;99.90;;;;;;4997536;28;19914;-77
2021/10/14 02:01:48;;;;;;;;;;;13.10;99.90;;;;;;4997202;28;19913;-76
2021/10/14 02:04:13;;;;;;;;;;;13.10;99.90;;;;;;5015102;28;19914;-76
2021/10/14 02:06:39;;;;;;;;;;;13.10;99.90;;;;;;5015183;28;20004;-77
2021/10/14 02:09:04;;;;;;;;;;;13.20;99.90;;;;;;5014534;28;19921;-77
2021/10/14 02:11:31;;;;;;;;;;;13.10;99.90;;;;;;5014538;28;19921;-78
2021/10/14 02:13:57;;;;;;;;;;;13.10;99.90;;;;;;5014375;28;19918;-77
2021/10/14 02:16:22;;;;;;;;;;;13.10;99.90;;;;;;4996930;28;19917;-77
2021/10/14 02:18:48;;;;;;;;;;;13.10;99.90;;;;;;5014960;28;19920;-77
2021/10/14 02:21:15;;;;;;;;;;;13.00;99.90;;;;;;5014484;28;19917;-77
2021/10/14 02:23:41;;;;;;;;;;;13.10;99.90;;;;;;5014155;28;19922;-78
2021/10/14 02:26:07;;;;;;;;;;;13.10;99.90;;;;;;5014723;28;19914;-78
2021/10/14 02:28:32;;;;;;;;;;;13.10;99.90;;;;;;5014480;28;19914;-77
2021/10/14 02:30:58;;;;;;;;;;;13.10;99.90;;;;;;5014218;28;19913;-77
2021/10/14 02:33:23;;;;;;;;;;;13.20;99.90;;;;;;4996870;28;19963;-77
2021/10/14 02:35:49;;;;;;;;;;;13.20;99.90;;;;;;4996918;28;19917;-76
2021/10/14 02:38:14;;;;;;;;;;;13.20;99.90;;;;;;4997070;28;19914;-75
2021/10/14 02:40:40;;;;;;;;;;;13.20;99.90;;;;;;4996370;28;20024;-76
2021/10/14 02:43:05;;;;;;;;;;;13.20;99.90;;;;;;4996337;28;19920;-76
2021/10/14 02:45:31;;;;;;;;;;;13.20;99.90;;;;;;5014222;28;19944;-76
2021/10/14 02:47:56;;;;;;;;;;;13.20;99.90;;;;;;4996544;28;19914;-77
2021/10/14 02:50:22;;;;;;;;;;;13.20;99.90;;;;;;5013693;28;20056;-77
2021/10/14 02:52:47;;;;;;;;;;;13.20;99.90;;;;;;5014393;28;19967;-76
2021/10/14 02:55:13;;;;;;;;;;;13.20;99.90;;;;;;5014199;28;20007;-76
2021/10/14 02:57:38;;;;;;;;;;;13.20;99.90;;;;;;4995857;28;20294;-77
2021/10/14 03:00:22;;;;;;;;;;;13.20;99.90;;;;;;5014534;28;20012;-76
2021/10/14 03:02:48;;;;;;;;;;;13.20;99.90;;;;;;5012168;28;20017;-77
2021/10/14 03:05:14;;;;;;;;;;;13.20;99.90;;;;;;5013984;28;20350;-77
2021/10/14 03:07:39;;;;;;;;;;;13.20;99.90;;;;;;5014110;28;19922;-76
2021/10/14 03:10:05;;;;;;;;;;;13.20;99.90;;;;;;5014154;28;19913;-77
2021/10/14 03:12:30;;;;;;;;;;;13.20;99.90;;;;;;4996195;28;20444;-76
2021/10/14 03:14:56;;;;;;;;;;;13.10;99.90;;;;;;4995787;28;19917;-75
2021/10/14 03:17:21;;;;;;;;;;;13.10;99.90;;;;;;4995291;28;19914;-75
2021/10/14 03:19:47;;;;;;;;;;;13.20;99.90;;;;;;4995371;28;19913;-76
2021/10/14 03:22:12;;;;;;;;;;;13.10;99.90;;;;;;4995452;28;19983;-76
2021/10/14 03:24:38;;;;;;;;;;;13.10;99.90;;;;;;5013734;28;19968;-76
2021/10/14 03:27:03;;;;;;;;;;;13.10;99.90;;;;;;5013911;28;19914;-77
2021/10/14 03:29:29;;;;;;;;;;;13.10;99.90;;;;;;4996051;28;20290;-78
2021/10/14 03:31:54;;;;;;;;;;;13.20;99.90;;;;;;4995817;28;20337;-77
2021/10/14 03:34:20;;;;;;;;;;;13.10;99.90;;;;;;4996113;28;19917;-78
2021/10/14 03:36:46;;;;;;;;;;;13.10;99.90;;;;;;5013607;28;19917;-77
2021/10/14 03:39:11;;;;;;;;;;;13.10;99.90;;;;;;4995640;28;20067;-77
2021/10/14 03:41:37;;;;;;;;;;;13.20;99.90;;;;;;4995810;28;19914;-76
2021/10/14 03:44:03;;;;;;;;;;;13.10;99.90;;;;;;5013299;28;19935;-76
2021/10/14 03:46:28;;;;;;;;;;;13.10;99.90;;;;;;5013241;28;20290;-77
2021/10/14 03:48:54;;;;;;;;;;;13.10;99.90;;;;;;4996030;28;19985;-77
2021/10/14 03:51:19;;;;;;;;;;;13.10;99.90;;;;;;4994695;28;19925;-77
2021/10/14 03:53:45;;;;;;;;;;;13.20;99.90;;;;;;5013170;28;19914;-77
2021/10/14 03:56:10;;;;;;;;;;;13.20;99.90;;;;;;4995928;28;20305;-77
2021/10/14 03:58:36;;;;;;;;;;;13.20;99.90;;;;;;4995604;28;20378;-76
2021/10/14 04:01:01;;;;;;;;;;;13.20;99.90;;;;;;4995357;28;19968;-78
2021/10/14 04:03:27;;;;;;;;;;;13.30;99.90;;;;;;5013088;28;20358;-77
2021/10/14 04:05:52;;;;;;;;;;;13.20;99.90;;;;;;4994963;28;20000;-78
2021/10/14 04:08:18;;;;;;;;;;;13.20;99.90;;;;;;4995752;28;19916;-77
2021/10/14 04:10:43;;;;;;;;;;;13.20;99.90;;;;;;4995500;28;19913;-77
2021/10/14 04:13:09;;;;;;;;;;;13.20;99.90;;;;;;5012833;28;19913;-79
2021/10/14 04:15:34;;;;;;;;;;;13.20;99.90;;;;;;4995068;28;19924;-77
2021/10/14 04:18:00;;;;;;;;;;;13.20;99.90;;;;;;5013038;28;19920;-75
2021/10/14 04:20:25;;;;;;;;;;;13.20;99.90;;;;;;5013081;28;20354;-76
2021/10/14 04:22:52;;;;;;;;;;;13.20;99.90;;;;;;4995091;28;19989;-77
2021/10/14 04:25:17;;;;;;;;;;;13.20;99.90;;;;;;5012748;28;19914;-77
2021/10/14 04:27:43;;;;;;;;;;;13.20;99.90;;;;;;4994905;28;20472;-77
2021/10/14 04:30:08;;;;;;;;;;;13.20;99.90;;;;;;4995424;28;19957;-78
2021/10/14 04:32:34;;;;;;;;;;;13.20;99.90;;;;;;4995448;28;19910;-77
2021/10/14 04:34:59;;;;;;;;;;;13.30;99.90;;;;;;4995243;28;20015;-76
2021/10/14 04:37:25;;;;;;;;;;;13.30;99.90;;;;;;4995089;28;19913;-77
2021/10/14 04:39:50;;;;;;;;;;;13.30;99.90;;;;;;4994935;28;20283;-76
2021/10/14 04:42:16;;;;;;;;;;;13.40;99.90;;;;;;5012562;28;19960;-77
2021/10/14 04:44:42;;;;;;;;;;;13.30;99.90;;;;;;4995123;28;19921;-77
2021/10/14 04:47:07;;;;;;;;;;;13.40;99.90;;;;;;4995195;28;19914;-76
2021/10/14 04:49:33;;;;;;;;;;;13.40;99.90;;;;;;4995505;28;19910;-77
2021/10/14 04:51:59;;;;;;;;;;;13.40;99.90;;;;;;5012585;28;19952;-77
2021/10/14 04:54:25;;;;;;;;;;;13.40;99.90;;;;;;5012644;28;19913;-77
2021/10/14 04:56:50;;;;;;;;;;;13.40;99.90;;;;;;4995084;28;20297;-76
2021/10/14 04:59:16;;;;;;;;;;;13.40;99.90;;;;;;4994746;28;19920;-76
2021/10/14 05:01:41;;;;;;;;;;;13.40;99.90;;;;;;5012923;28;19913;-76
2021/10/14 05:04:07;;;;;;;;;;;13.40;99.90;;;;;;4996830;28;19913;-77
2021/10/14 05:06:32;;;;;;;;;;;13.40;99.90;;;;;;4998979;28;19928;-76
2021/10/14 05:08:58;;;;;;;;;;;13.40;99.90;;;;;;5016614;28;19996;-76
2021/10/14 05:11:23;;;;;;;;;;;13.40;99.90;;;;;;4998570;28;19916;-77
2021/10/14 05:13:49;;;;;;;;;;;13.40;99.90;;;;;;5016079;28;19914;-76
2021/10/14 05:16:14;;;;;;;;;;;13.40;99.90;;;;;;5016251;28;19956;-78
2021/10/14 05:18:40;;;;;;;;;;;13.40;99.90;;;;;;4998002;28;19936;-77
2021/10/14 05:21:05;;;;;;;;;;;13.40;99.90;;;;;;4998328;28;20413;-78
2021/10/14 05:23:31;;;;;;;;;;;13.40;99.90;;;;;;4997954;28;19920;-76
2021/10/14 05:25:56;;;;;;;;;;;13.50;99.90;;;;;;4997861;28;19920;-76
2021/10/14 05:28:22;;;;;;;;;;;13.50;99.90;;;;;;4997255;28;19913;-76
2021/10/14 05:30:49;;;;;;;;;;;13.50;99.90;;;;;;4998057;28;20008;-76
2021/10/14 05:33:15;;;;;;;;;;;13.50;99.90;;;;;;5015501;28;19964;-77
2021/10/14 05:35:40;;;;;;;;;;;13.60;99.90;;;;;;5015746;28;20382;-77
2021/10/14 05:38:06;;;;;;;;;;;13.50;99.90;;;;;;4997674;28;20004;-77
2021/10/14 05:40:32;;;;;;;;;;;13.50;99.90;;;;;;5016012;28;19913;-76
2021/10/14 05:42:57;;;;;;;;;;;13.60;99.90;;;;;;4997928;28;20036;-76
2021/10/14 05:45:23;;;;;;;;;;;13.60;99.90;;;;;;5014807;28;19917;-77
2021/10/14 05:47:49;;;;;;;;;;;13.60;99.90;;;;;;4997796;28;19913;-76
2021/10/14 05:50:14;;;;;;;;;;;13.60;99.90;;;;;;5015242;28;19921;-77
2021/10/14 05:52:40;;;;;;;;;;;13.60;99.90;;;;;;5015132;28;19916;-77
2021/10/14 05:55:06;;;;;;;;;;;13.60;99.90;;;;;;4997668;28;19913;-76
2021/10/14 05:57:31;;;;;;;;;;;13.60;99.90;;;;;;5014866;28;19979;-78
2021/10/14 05:59:57;;;;;;;;;;;13.70;99.90;;;;;;4996910;28;20329;-76
2021/10/14 06:02:22;;;;;;;;;;;13.60;99.90;;;;;;4997328;28;19913;-76
2021/10/14 06:04:48;;;;;;;;;;;13.60;99.90;;;;;;4997259;28;19975;-76
2021/10/14 06:07:14;;;;;;;;;;;13.60;99.90;;;;;;5014646;28;19922;-76
2021/10/14 06:09:40;;;;;;;;;;;13.60;99.90;;;;;;5014669;28;20313;-75
2021/10/14 06:12:06;;;;;;;;;;;13.60;99.90;;;;;;5014686;28;19914;-75
2021/10/14 06:14:32;;;;;;;;;;;13.60;99.90;;;;;;4993621;28;19917;-76
2021/10/14 06:16:57;;;;;;;;;;;13.60;99.90;;;;;;5014322;28;19917;-77
2021/10/14 06:19:23;;;;;;;;;;;13.60;99.90;;;;;;4996995;28;19914;-76
2021/10/14 06:21:48;;;;;;;;;;;13.60;99.90;;;;;;5014473;28;19956;-77
2021/10/14 06:24:14;;;;;;;;;;;13.60;99.90;;;;;;4996920;28;20004;-77
2021/10/14 06:26:39;;;;;;;;;;;13.70;99.90;;;;;;5013111;28;20012;-77
2021/10/14 06:29:05;;;;;;;;;;;13.60;99.90;;;;;;4996772;28;19909;-76
2021/10/14 06:31:30;;;;;;;;;;;13.70;99.90;;;;;;5014155;28;20045;-77
2021/10/14 06:33:56;;;;;;;;;;;13.80;99.90;;;;;;5014598;28;20294;-77
2021/10/14 06:36:21;;;;;;;;;;;13.80;99.90;;;;;;5014616;28;19917;-78
2021/10/14 06:38:47;;;;;;;;;;;13.80;99.90;;;;;;4997398;28;20436;-78
2021/10/14 06:41:13;;;;;;;;;;;13.80;99.90;;;;;;4996852;28;20358;-76
2021/10/14 06:43:39;;;;;;;;;;;13.80;99.90;;;;;;5014584;28;19909;-76
2021/10/14 06:46:05;;;;;;;;;;;13.80;99.90;;;;;;4997513;28;19909;-77
2021/10/14 06:48:30;;;;;;;;;;;13.80;99.90;;;;;;5014066;28;19917;-76
2021/10/14 06:50:58;;;;;;;;;;;13.80;99.90;;;;;;4999265;28;19944;-77
2021/10/14 06:53:24;;;;;;;;;;;13.90;99.90;;;;;;4996663;28;19913;-77
2021/10/14 06:55:50;;;;;;;;;;;13.80;99.90;;;;;;4993289;28;19980;-76
2021/10/14 06:58:16;;;;;;;;;;;13.80;99.90;;;;;;4992681;28;19914;-78
2021/10/14 07:00:41;;;;;;;;;;;13.80;99.90;;;;;;5013677;28;19914;-77
2021/10/14 07:03:08;;;;;;;;;;;13.80;99.90;;;;;;4995939;28;19910;-77
2021/10/14 07:05:34;;;;;;;;;;;13.90;99.90;;;;;;4995860;28;19913;-77
2021/10/14 07:07:59;;;;;;;;;;;13.90;99.90;;;;;;4996207;28;20497;-77
2021/10/14 07:10:25;;;;;;;;;;;13.90;99.90;;;;;;4996133;28;19959;-77
2021/10/14 07:12:52;;;;;;;;;;;13.90;99.90;;;;;;5014039;28;19972;-78
2021/10/14 07:15:17;;;;;;;;;;;13.90;99.90;;;;;;5013689;28;19919;-78
2021/10/14 07:17:43;;;;;;;;;;;13.90;99.90;;;;;;4996503;28;20004;-76
2021/10/14 07:20:09;;;;;;;;;;;13.90;99.90;;;;;;4996211;28;20340;-78
2021/10/14 07:22:34;;;;;;;;;;;13.90;99.90;;;;;;4996337;28;19920;-77
2021/10/14 07:24:59;;;;;;;;;;;13.90;99.90;;;;;;4995935;28;19913;-77
2021/10/14 07:27:25;;;;;;;;;;;14.00;99.90;;;;;;4995243;28;20362;-77
2021/10/14 07:29:50;;;;;;;;;;;13.90;99.90;;;;;;5011166;28;19944;-76
2021/10/14 07:32:16;;;;;;;;;;;13.90;99.90;;;;;;4995619;28;19972;-77
2021/10/14 07:34:41;;;;;;;;;;;13.90;99.90;;;;;;5011431;28;19914;-78
2021/10/14 07:37:07;;;;;;;;;;;14.00;99.90;;;;;;5012163;28;19914;-78
2021/10/14 07:39:33;;;;;;;;;;;14.00;99.90;;;;;;4991317;28;20354;-77
2021/10/14 07:41:58;;;;;;;;;;;14.00;99.90;;;;;;5007221;28;19910;-79
2021/10/14 07:44:24;;;;;;;;;;;14.10;99.90;;;;;;4996546;28;20398;-82
2021/10/14 07:46:50;;;;;;;;;;;14.10;99.90;;;;;;5013633;28;20030;-81
2021/10/14 07:49:16;;;;;;;;;;;14.10;99.90;;;;;;4995799;28;19914;-81
2021/10/14 07:51:41;;;;;;;;;;;14.10;99.90;;;;;;5013933;28;20425;-80
2021/10/14 07:54:07;;;;;;;;;;;14.10;99.90;;;;;;4996217;28;19944;-82
2021/10/14 07:56:33;;;;;;;;;;;14.10;99.90;;;;;;4995552;28;19968;-83
2021/10/14 07:58:59;;;;;;;;;;;14.10;99.90;;;;;;4995770;28;19909;-80
2021/10/14 08:01:24;;;;;;;;;;;14.10;99.90;;;;;;4995453;28;20013;-78
2021/10/14 08:03:50;;;;;;;;;;;14.20;99.90;;;;;;5013284;28;19916;-78
2021/10/14 08:06:16;;;;;;;;;;;14.10;99.90;;;;;;4995232;28;20019;-77
2021/10/14 08:08:41;;;;;;;;;;;14.10;99.90;;;;;;4995838;28;19917;-80
2021/10/14 08:11:07;;;;;;;;;;;14.10;99.90;;;;;;5012930;28;19921;-79
2021/10/14 08:13:33;;;;;;;;;;;14.10;99.90;;;;;;4992606;28;20429;-76
2021/10/14 08:15:58;;;;;;;;;;;14.20;99.90;;;;;;4995739;28;20012;-77
2021/10/14 08:18:24;;;;;;;;;;;14.20;99.90;;;;;;4994948;28;20362;-77
2021/10/14 08:20:51;;;;;;;;;;;14.30;99.90;;;;;;4995558;28;19914;-77
2021/10/14 08:23:17;;;;;;;;;;;14.30;99.90;;;;;;4995647;28;19921;-77
2021/10/14 08:25:42;;;;;;;;;;;14.30;99.90;;;;;;5012692;28;20259;-77
2021/10/14 08:28:08;;;;;;;;;;;14.30;99.90;;;;;;5012662;28;19909;-76
2021/10/14 08:30:33;;;;;;;;;;;14.40;99.90;;;;;;4995203;28;19914;-77
2021/10/14 08:32:59;;;;;;;;;;;14.40;99.90;;;;;;5012784;28;19909;-77
2021/10/14 08:35:24;;;;;;;;;;;14.60;99.90;;;;;;5012529;28;19921;-77
2021/10/14 08:37:50;;;;;;;;;;;14.60;99.90;;;;;;5014030;28;19918;-76
2021/10/14 08:40:16;;;;;;;;;;;14.70;99.90;;;;;;4999216;28;19910;-77
2021/10/14 08:42:42;;;;;;;;;;;14.70;99.90;;;;;;5016636;28;19914;-77
2021/10/14 08:45:08;;;;;;;;;;;14.70;99.90;;;;;;5016720;28;20294;-78
2021/10/14 08:47:35;;;;;;;;;;;14.60;99.90;;;;;;4997981;28;19914;-76
2021/10/14 08:50:01;;;;;;;;;;;14.60;99.90;;;;;;5016550;28;19921;-78
2021/10/14 08:52:27;;;;;;;;;;;14.60;99.90;;;;;;4996318;28;19917;-77
2021/10/14 08:54:52;;;;;;;;;;;14.60;99.90;;;;;;5015884;28;19964;-78
2021/10/14 08:57:18;;;;;;;;;;;14.60;99.90;;;;;;5015678;28;19997;-77
2021/10/14 08:59:43;;;;;;;;;;;14.60;99.90;;;;;;5016386;28;19915;-76
2021/10/14 09:02:13;;;;;;;;;;;14.60;99.90;;;;;;4997877;28;19941;-76
2021/10/14 09:04:55;;;;;;;;;;;14.60;99.90;;;;;;4998469;28;19964;-76
2021/10/14 09:07:21;;;;;;;;;;;14.70;99.90;;;;;;4997823;28;19926;-77
2021/10/14 09:09:47;;;;;;;;;;;14.90;99.90;;;;;;5012335;28;19957;-78
2021/10/14 09:12:14;;;;;;;;;;;14.90;99.90;;;;;;5015635;28;19913;-78
2021/10/14 09:14:58;;;;;;;;;;;15.00;99.90;;;;;;4998288;28;20389;-77
2021/10/14 09:17:36;;;;;;;;;;;15.10;99.90;;;;;;5011874;28;19918;-77
2021/10/14 09:20:21;;;;;;;;;;;15.30;99.90;;;;;;5015612;28;19920;-76
2021/10/14 09:23:06;;;;;;;;;;;15.40;99.90;;;;;;4998278;28;19999;-77
2021/10/14 09:25:34;;;;;;;;;;;15.50;99.90;;;;;;4997161;28;19913;-76
2021/10/14 09:28:07;;;;;;;;;;;15.60;99.90;;;;;;4997543;28;19948;-75
2021/10/14 09:30:42;;;;;;;;;;;15.70;99.90;;;;;;5011559;28;19920;-76
2021/10/14 09:33:07;;;;;;;;;;;15.80;99.90;;;;;;4997352;28;19936;-78
2021/10/14 09:35:32;;;;;;;;;;;15.80;99.90;;;;;;4998846;28;19917;-80
2021/10/14 09:37:58;;;;;;;;;;;15.70;99.90;;;;;;4998811;28;19981;-78
2021/10/14 09:40:26;;;;;;;;;;;15.70;99.90;;;;;;5015366;28;20378;-78
2021/10/14 09:43:03;;;;;;;;;;;15.70;99.90;;;;;;4997235;28;19917;-77
2021/10/14 09:45:30;;;;;;;;;;;15.80;99.90;;;;;;4997492;28;20266;-76
2021/10/14 09:48:11;;;;;;;;;;;15.80;99.90;;;;;;5014323;28;20285;-76
2021/10/14 09:50:39;;;;;;;;;;;15.80;99.90;;;;;;4991112;28;20008;-78
2021/10/14 09:53:06;;;;;;;;;;;15.90;99.90;;;;;;4990978;28;19913;-76
2021/10/14 09:55:31;;;;;;;;;;;15.90;99.90;;;;;;4993380;28;19925;-78
2021/10/14 09:57:59;;;;;;;;;;;15.80;99.90;;;;;;4992107;28;20000;-77
2021/10/14 10:00:26;;;;;;;;;;;15.80;99.90;;;;;;5013756;28;20328;-77
2021/10/14 10:02:52;;;;;;;;;;;15.80;99.90;;;;;;4991261;28;19914;-75
2021/10/14 10:05:18;;;;;;;;;;;15.80;99.90;;;;;;5013105;28;19940;-77
2021/10/14 10:07:46;;;;;;;;;;;15.70;99.90;;;;;;5013848;28;20389;-76
2021/10/14 10:10:14;;;;;;;;;;;15.70;99.90;;;;;;4994743;28;19913;-77
2021/10/14 10:12:40;;;;;;;;;;;15.70;99.90;;;;;;5014456;28;19920;-77
2021/10/14 10:15:06;;;;;;;;;;;15.80;99.90;;;;;;5014393;28;20282;-76
2021/10/14 10:17:36;;;;;;;;;;;15.90;99.90;;;;;;5013206;28;19913;-77
2021/10/14 10:20:02;;;;;;;;;;;15.90;99.90;;;;;;5013658;28;20369;-78
2021/10/14 10:22:33;;;;;;;;;;;16.00;99.90;;;;;;5014548;28;20385;-77
2021/10/14 10:28:03;;;;;;;;;;;16.10;99.90;;;;;;5009232;28;19960;-79
2021/10/14 10:30:29;;;;;;;;;;;16.10;99.90;;;;;;5012202;28;20775;-77
2021/10/14 10:32:55;;;;;;;;;;;16.10;99.90;;;;;;4996291;28;20286;-77
2021/10/14 10:35:37;;;;;;;;;;;16.20;99.90;;;;;;4996475;28;19921;-77
2021/10/14 10:38:12;;;;;;;;;;;16.30;99.90;;;;;;4996371;28;20384;-77
2021/10/14 10:40:40;;;;;;;;;;;16.30;99.90;;;;;;4996654;28;20111;-79
2021/10/14 10:43:12;;;;;;;;;;;16.40;99.90;;;;;;5014431;28;19953;-76
2021/10/14 10:45:41;;;;;;;;;;;16.60;99.90;;;;;;4995912;28;20302;-77
2021/10/14 10:48:07;;;;;;;;;;;16.70;99.90;;;;;;4994718;28;19968;-76
2021/10/14 10:50:32;;;;;;;;;;;16.90;99.90;;;;;;5012798;28;20382;-77
2021/10/14 10:53:36;;;;;;;;;;;17.00;99.90;;;;;;5012843;28;19921;-77
2021/10/14 10:56:02;;;;;;;;;;;17.00;99.90;;;;;;4898801;29;20003;-76
2021/10/14 10:58:28;;;;;;;;;;;16.80;99.90;;;;;;4898963;29;19915;-78
2021/10/14 11:00:53;;;;;;;;;;;16.70;99.90;;;;;;4960871;28;19913;-76
2021/10/14 11:03:20;;;;;;;;;;;16.70;99.90;;;;;;5010846;28;20356;-78
2021/10/14 11:05:47;;;;;;;;;;;16.70;99.90;;;;;;4995671;28;19913;-77
2021/10/14 11:08:16;;;;;;;;;;;16.60;99.90;;;;;;5010623;28;19925;-77
2021/10/14 11:10:41;;;;;;;;;;;16.60;99.90;;;;;;5015157;28;19936;-78
2021/10/14 11:13:07;;;;;;;;;;;16.60;99.90;;;;;;4996905;28;20131;-78
2021/10/14 11:15:32;;;;;;;;;;;16.50;99.90;;;;;;5014405;28;19929;-81
2021/10/14 11:18:05;;;;;;;;;;;16.40;99.90;;;;;;5012953;28;19913;-79
2021/10/14 11:20:32;;;;;;;;;;;16.50;99.90;;;;;;4996964;28;19917;-78
2021/10/14 11:23:04;;;;;;;;;;;16.50;99.90;;;;;;5013959;28;19966;-80
2021/10/14 11:25:30;;;;;;;;;;;16.40;99.90;;;;;;4995872;28;19913;-78
2021/10/14 11:28:03;;;;;;;;;;;16.30;99.90;;;;;;4997224;28;20015;-79
2021/10/14 11:30:58;;;;;;;;;;;16.20;99.90;;;;;;5012765;28;19944;-78
2021/10/14 11:33:35;;;;;;;;;;;16.20;99.90;;;;;;4996266;28;19959;-78
2021/10/14 11:36:05;;;;;;;;;;;16.00;99.90;;;;;;5014716;28;20340;-80
2021/10/14 11:38:32;;;;;;;;;;;16.00;99.90;;;;;;5014478;28;19917;-79
2021/10/14 11:40:58;;;;;;;;;;;16.10;99.90;;;;;;4997012;28;19968;-78
2021/10/14 11:43:24;;;;;;;;;;;16.10;99.90;;;;;;4996917;28;19913;-79
2021/10/14 11:45:50;;;;;;;;;;;16.10;99.90;;;;;;4994146;28;20009;-79
2021/10/14 11:48:34;;;;;;;;;;;16.10;99.90;;;;;;5013788;28;19961;-78
2021/10/14 11:51:04;;;;;;;;;;;16.10;99.90;;;;;;5012832;28;19897;-80
2021/10/14 11:53:30;;;;;;;;;;;16.00;99.90;;;;;;5039177;28;19972;-79
2021/10/14 11:55:56;;;;;;;;;;;16.10;99.90;;;;;;5037945;28;19914;-78
2021/10/14 11:58:22;;;;;;;;;;;16.30;99.90;;;;;;5021438;28;19921;-78
2021/10/14 12:00:47;;;;;;;;;;;16.50;99.90;;;;;;5016989;28;19912;-78
2021/10/14 12:03:13;;;;;;;;;;;16.70;99.90;;;;;;5026234;28;19909;-78
2021/10/14 12:05:39;;;;;;;;;;;16.90;99.90;;;;;;5005900;28;19902;-79
2021/10/14 12:08:04;;;;;;;;;;;16.90;99.90;;;;;;5021468;28;19913;-79
2021/10/14 12:10:34;;;;;;;;;;;16.90;99.90;;;;;;5038350;28;19920;-79
2021/10/14 12:13:03;;;;;;;;;;;16.80;99.90;;;;;;5039929;28;19910;-78
2021/10/14 12:15:28;;;;;;;;;;;16.80;99.90;;;;;;5015198;28;19944;-78
2021/10/14 12:17:54;;;;;;;;;;;16.70;99.90;;;;;;5017001;28;19906;-78
2021/10/14 12:20:20;;;;;;;;;;;16.60;99.90;;;;;;5025693;28;19993;-77
2021/10/14 12:22:47;;;;;;;;;;;16.60;99.90;;;;;;5024752;28;19933;-78
2021/10/14 12:25:13;;;;;;;;;;;16.60;99.90;;;;;;5040039;28;19988;-76
2021/10/14 12:27:48;;;;;;;;;;;16.50;99.90;;;;;;5025547;28;19902;-78
2021/10/14 12:30:43;;;;;;;;;;;16.40;99.90;;;;;;5024515;28;19910;-80
2021/10/14 12:33:11;;;;;;;;;;;16.40;99.90;;;;;;5024879;28;19902;-77
2021/10/14 12:35:40;;;;;;;;;;;16.30;99.90;;;;;;5024965;28;19910;-78
2021/10/14 12:38:10;;;;;;;;;;;16.30;99.90;;;;;;5025511;28;19924;-79
2021/10/14 12:40:42;;;;;;;;;;;16.30;99.90;;;;;;5041923;28;19902;-77
2021/10/14 12:43:16;;;;;;;;;;;16.40;99.90;;;;;;5040611;28;19902;-78
2021/10/14 12:48:27;;;;;;;;;;;16.60;99.90;;;;;;5040414;28;19970;-80
2021/10/14 12:53:38;;;;;;;;;;;16.80;99.90;;;;;;5034896;28;19957;-79
2021/10/14 12:56:03;;;;;;;;;;;17.00;99.90;;;;;;5024256;28;19997;-78
2021/10/14 12:58:29;;;;;;;;;;;17.10;99.90;;;;;;5025080;28;19949;-77
2021/10/14 13:01:10;;;;;;;;;;;17.20;99.90;;;;;;5040910;28;19909;-80
2021/10/14 13:03:36;;;;;;;;;;;17.20;99.90;;;;;;5024157;28;19904;-79
2021/10/14 13:06:05;;;;;;;;;;;17.20;99.90;;;;;;5023606;28;19905;-78
2021/10/14 13:08:35;;;;;;;;;;;17.20;99.90;;;;;;5040866;28;19936;-79
2021/10/14 13:11:02;;;;;;;;;;;17.00;99.90;;;;;;5021829;28;19916;-78
2021/10/14 13:13:29;;;;;;;;;;;16.70;99.90;;;;;;5040343;28;19917;-78
2021/10/14 13:15:55;;;;;;;;;;;16.60;99.90;;;;;;5019851;28;19921;-78
2021/10/14 13:18:20;;;;;;;;;;;16.50;99.90;;;;;;5018177;28;19939;-77
2021/10/14 13:20:46;;;;;;;;;;;16.50;99.90;;;;;;5015187;28;19918;-78
2021/10/14 13:23:11;;;;;;;;;;;16.60;99.90;;;;;;5018076;28;19913;-77
2021/10/14 13:25:39;;;;;;;;;;;16.70;99.90;;;;;;5014082;28;19905;-78
2021/10/14 13:28:05;;;;;;;;;;;16.70;99.90;;;;;;5021490;28;19917;-79
2021/10/14 13:30:30;;;;;;;;;;;16.70;99.90;;;;;;5020626;28;19948;-78
2021/10/14 13:32:56;;;;;;;;;;;16.80;99.90;;;;;;5020048;28;19925;-78
2021/10/14 13:35:22;;;;;;;;;;;16.70;99.90;;;;;;5036948;28;19906;-78
2021/10/14 13:37:48;;;;;;;;;;;16.70;99.90;;;;;;5038617;28;19937;-78
2021/10/14 13:40:14;;;;;;;;;;;16.70;99.90;;;;;;5021135;28;19964;-78
2021/10/14 13:42:43;;;;;;;;;;;16.70;99.90;;;;;;5019781;28;19921;-77
2021/10/14 13:45:08;;;;;;;;;;;16.70;99.90;;;;;;5038639;28;19917;-77
2021/10/14 13:47:34;;;;;;;;;;;16.50;99.90;;;;;;5035212;28;19936;-76
2021/10/14 13:49:59;;;;;;;;;;;16.40;99.90;;;;;;5022581;28;19983;-76
2021/10/14 13:52:25;;;;;;;;;;;16.40;99.90;;;;;;5019741;28;19967;-77
2021/10/14 13:54:50;;;;;;;;;;;16.50;99.90;;;;;;5001818;28;19932;-76
2021/10/14 13:57:16;;;;;;;;;;;16.40;99.90;;;;;;4999336;28;20278;-77
2021/10/14 13:59:41;;;;;;;;;;;16.40;99.90;;;;;;5003740;28;19917;-76
2021/10/14 14:02:07;;;;;;;;;;;16.40;99.90;;;;;;5017460;28;19914;-76
2021/10/14 14:04:33;;;;;;;;;;;16.40;99.90;;;;;;5017032;28;19920;-76
2021/10/14 14:06:58;;;;;;;;;;;16.40;99.90;;;;;;4999510;28;20405;-76
2021/10/14 14:09:24;;;;;;;;;;;16.50;99.90;;;;;;4998389;28;19918;-76
2021/10/14 14:11:49;;;;;;;;;;;16.50;99.90;;;;;;4996721;28;19914;-76
2021/10/14 14:14:15;;;;;;;;;;;16.40;99.90;;;;;;4997509;28;19914;-76
2021/10/14 14:16:41;;;;;;;;;;;16.30;99.90;;;;;;4996781;28;19965;-76
2021/10/14 14:19:07;;;;;;;;;;;16.40;99.90;;;;;;5015068;28;19979;-77
2021/10/14 14:21:33;;;;;;;;;;;16.40;99.90;;;;;;5014986;28;19917;-77